createdAt,value
2019-03-13T00:00:03.751Z,1.40
2019-03-13T00:01:03.738Z,1.60
2019-03-13T00:02:03.721Z,1.40
2019-03-13T00:03:03.729Z,1.40
2019-03-13T00:04:03.698Z,1.30
2019-03-13T00:05:03.688Z,1.70
2019-03-13T00:06:03.676Z,1.60
2019-03-13T00:07:03.669Z,1.30
2019-03-13T00:08:03.670Z,1.40
2019-03-13T00:09:03.650Z,1.40
2019-03-13T00:10:03.636Z,1.70
2019-03-13T00:11:03.628Z,1.40
2019-03-13T00:12:03.610Z,1.60
2019-03-13T00:13:03.613Z,1.60
2019-03-13T00:14:03.588Z,1.70
2019-03-13T00:15:03.574Z,1.30
2019-03-13T00:16:03.574Z,1.60
2019-03-13T00:17:03.553Z,1.60
2019-03-13T00:18:03.557Z,1.60
2019-03-13T00:19:03.528Z,1.40
2019-03-13T00:20:03.519Z,1.80
2019-03-13T00:21:03.508Z,1.30
2019-03-13T00:22:03.494Z,1.50
2019-03-13T00:23:03.515Z,1.40
2019-03-13T00:24:03.473Z,1.80
2019-03-13T00:25:03.464Z,1.70
2019-03-13T00:26:03.451Z,2.10
2019-03-13T00:27:03.443Z,2.10
2019-03-13T00:28:03.434Z,2.00
2019-03-13T00:29:03.441Z,1.80
2019-03-13T00:30:03.404Z,1.90
2019-03-13T00:31:03.392Z,1.90
2019-03-13T00:32:03.381Z,2.10
2019-03-13T00:33:03.384Z,1.80
2019-03-13T00:34:03.375Z,1.90
2019-03-13T00:35:03.348Z,1.80
2019-03-13T00:36:03.338Z,2.00
2019-03-13T00:37:03.324Z,2.20
2019-03-13T00:38:03.313Z,1.70
2019-03-13T00:39:03.330Z,1.80
2019-03-13T00:40:03.290Z,1.80
2019-03-13T00:41:03.279Z,1.60
2019-03-13T00:42:03.274Z,1.70
2019-03-13T00:43:03.255Z,1.60
2019-03-13T00:44:03.246Z,1.50
2019-03-13T00:45:03.248Z,1.50
2019-03-13T00:46:03.223Z,1.60
2019-03-13T00:47:03.211Z,1.90
2019-03-13T00:48:03.199Z,1.50
2019-03-13T00:49:03.190Z,1.60
2019-03-13T00:50:03.195Z,1.50
2019-03-13T00:51:03.166Z,1.60
2019-03-13T00:52:03.155Z,1.70
2019-03-13T00:53:03.151Z,1.40
2019-03-13T00:54:03.131Z,1.70
2019-03-13T00:55:03.137Z,1.40
2019-03-13T00:56:03.110Z,1.60
2019-03-13T00:57:03.098Z,1.50
2019-03-13T00:58:03.087Z,1.50
2019-03-13T00:59:03.075Z,1.60
2019-03-13T01:00:03.083Z,1.40
2019-03-13T01:01:03.053Z,1.60
2019-03-13T01:02:03.048Z,1.50
2019-03-13T01:03:03.033Z,1.80
2019-03-13T01:04:03.020Z,1.30
2019-03-13T01:05:03.027Z,1.40
2019-03-13T01:06:02.995Z,1.50
2019-03-13T01:07:02.990Z,1.60
2019-03-13T01:08:02.974Z,1.60
2019-03-13T01:09:02.970Z,1.40
2019-03-13T01:10:03.013Z,1.70
2019-03-13T01:11:02.955Z,1.60
2019-03-13T01:12:02.946Z,1.50
2019-03-13T01:13:02.922Z,1.30
2019-03-13T01:14:02.906Z,1.70
2019-03-13T01:15:02.929Z,1.40
2019-03-13T01:16:02.881Z,1.30
2019-03-13T01:17:02.871Z,1.60
2019-03-13T01:18:02.865Z,1.50
2019-03-13T01:19:02.849Z,1.60
2019-03-13T01:20:02.864Z,1.30
2019-03-13T01:21:02.827Z,1.40
2019-03-13T01:22:02.814Z,1.30
2019-03-13T01:23:02.807Z,1.60
2019-03-13T01:24:02.792Z,1.60
2019-03-13T01:25:02.782Z,1.50
2019-03-13T01:26:02.784Z,1.50
2019-03-13T01:27:02.757Z,1.80
2019-03-13T01:28:02.747Z,1.50
2019-03-13T01:29:02.738Z,1.80
2019-03-13T01:30:02.724Z,2.00
2019-03-13T01:31:02.729Z,1.70
2019-03-13T01:32:02.702Z,1.40
2019-03-13T01:33:02.692Z,1.30
2019-03-13T01:34:02.680Z,1.60
2019-03-13T01:35:02.670Z,1.50
2019-03-13T01:36:02.673Z,1.80
2019-03-13T01:37:02.645Z,1.70
2019-03-13T01:38:02.636Z,1.70
2019-03-13T01:39:02.623Z,2.00
2019-03-13T01:40:02.611Z,1.90
2019-03-13T01:41:02.626Z,1.80
2019-03-13T01:42:02.588Z,1.90
2019-03-13T01:43:02.576Z,1.90
2019-03-13T01:44:02.568Z,2.00
2019-03-13T01:45:02.554Z,1.90
2019-03-13T01:46:02.560Z,1.80
2019-03-13T01:47:02.531Z,1.80
2019-03-13T01:48:02.521Z,1.80
2019-03-13T01:49:02.509Z,1.80
2019-03-13T01:50:02.498Z,1.80
2019-03-13T01:51:02.500Z,2.10
2019-03-13T01:52:02.475Z,1.80
2019-03-13T01:53:02.463Z,2.00
2019-03-13T01:54:02.529Z,1.90
2019-03-13T01:55:02.447Z,2.00
2019-03-13T01:56:02.446Z,1.90
2019-03-13T01:57:02.418Z,2.10
2019-03-13T01:58:02.410Z,2.10
2019-03-13T01:59:02.398Z,1.70
2019-03-13T02:00:02.385Z,2.00
2019-03-13T02:01:02.404Z,2.00
2019-03-13T02:02:02.363Z,1.90
2019-03-13T02:03:02.349Z,2.10
2019-03-13T02:04:02.342Z,1.80
2019-03-13T02:05:02.328Z,1.90
2019-03-13T02:06:02.315Z,1.80
2019-03-13T02:07:02.320Z,2.00
2019-03-13T02:08:02.294Z,1.80
2019-03-13T02:09:02.280Z,1.90
2019-03-13T02:10:02.273Z,2.20
2019-03-13T02:11:02.259Z,2.10
2019-03-13T02:12:02.262Z,2.00
2019-03-13T02:13:02.238Z,2.40
2019-03-13T02:14:02.226Z,2.00
2019-03-13T02:15:02.217Z,2.00
2019-03-13T02:16:02.203Z,2.40
2019-03-13T02:17:02.220Z,2.30
2019-03-13T02:18:02.180Z,2.30
2019-03-13T02:19:02.169Z,2.20
2019-03-13T02:20:02.166Z,2.10
2019-03-13T02:21:02.146Z,2.00
2019-03-13T02:22:02.135Z,2.40
2019-03-13T02:23:02.137Z,2.20
2019-03-13T02:24:02.112Z,2.10
2019-03-13T02:25:02.102Z,2.20
2019-03-13T02:26:02.089Z,2.10
2019-03-13T02:27:02.080Z,2.30
2019-03-13T02:28:02.087Z,2.30
2019-03-13T02:29:02.059Z,2.30
2019-03-13T02:30:02.086Z,2.20
2019-03-13T02:31:02.033Z,2.20
2019-03-13T02:32:02.020Z,2.40
2019-03-13T02:33:02.026Z,2.40
2019-03-13T02:34:01.999Z,2.30
2019-03-13T02:35:01.991Z,2.30
2019-03-13T02:36:01.977Z,2.30
2019-03-13T02:37:01.965Z,2.30
2019-03-13T02:38:01.969Z,2.40
2019-03-13T02:39:01.944Z,2.20
2019-03-13T02:40:01.956Z,2.50
2019-03-13T02:41:01.927Z,2.20
2019-03-13T02:42:01.909Z,2.40
2019-03-13T02:43:01.917Z,2.70
2019-03-13T02:44:01.885Z,2.50
2019-03-13T02:45:01.877Z,2.50
2019-03-13T02:46:01.882Z,2.50
2019-03-13T02:47:01.852Z,2.50
2019-03-13T02:48:01.856Z,2.40
2019-03-13T02:49:01.828Z,2.40
2019-03-13T02:50:01.890Z,2.70
2019-03-13T02:51:01.810Z,2.60
2019-03-13T02:52:01.798Z,2.70
2019-03-13T02:53:01.809Z,2.30
2019-03-13T02:54:01.771Z,2.60
2019-03-13T02:55:01.764Z,2.70
2019-03-13T02:56:01.749Z,2.50
2019-03-13T02:57:01.738Z,2.40
2019-03-13T02:58:01.726Z,2.30
2019-03-13T02:59:01.741Z,2.00
2019-03-13T03:00:01.710Z,1.50
2019-03-13T03:01:01.695Z,1.30
2019-03-13T03:02:01.761Z,1.10
2019-03-13T03:03:01.669Z,1.00
2019-03-13T03:04:01.677Z,0.80
2019-03-13T03:05:01.666Z,0.70
2019-03-13T03:06:01.640Z,0.70
2019-03-13T03:07:01.637Z,0.60
2019-03-13T03:08:01.616Z,0.60
2019-03-13T03:09:01.632Z,0.80
2019-03-13T03:10:01.610Z,0.60
2019-03-13T03:11:01.609Z,0.90
2019-03-13T03:12:01.583Z,0.60
2019-03-13T03:13:01.560Z,0.60
2019-03-13T03:14:01.564Z,0.70
2019-03-13T03:15:01.554Z,0.50
2019-03-13T03:16:01.522Z,0.60
2019-03-13T03:17:01.512Z,0.60
2019-03-13T03:18:01.502Z,0.60
2019-03-13T03:19:01.487Z,0.50
2019-03-13T03:20:01.498Z,0.40
2019-03-13T03:21:01.476Z,0.60
2019-03-13T03:22:01.461Z,0.60
2019-03-13T03:23:01.443Z,0.50
2019-03-13T03:24:01.430Z,0.60
2019-03-13T03:25:01.469Z,0.70
2019-03-13T03:26:01.412Z,0.60
2019-03-13T03:27:01.401Z,0.60
2019-03-13T03:28:01.386Z,0.60
2019-03-13T03:29:01.376Z,0.70
2019-03-13T03:30:01.420Z,0.80
2019-03-13T03:31:01.351Z,0.70
2019-03-13T03:32:01.342Z,0.70
2019-03-13T03:33:01.331Z,0.80
2019-03-13T03:34:01.397Z,0.70
2019-03-13T03:35:01.664Z,0.80
2019-03-13T03:36:01.312Z,1.20
2019-03-13T03:37:01.283Z,0.80
2019-03-13T03:38:01.283Z,1.00
2019-03-13T03:39:01.265Z,1.00
2019-03-13T03:40:01.252Z,1.10
2019-03-13T03:41:01.271Z,1.40
2019-03-13T03:42:01.228Z,1.60
2019-03-13T03:43:01.221Z,1.70
2019-03-13T03:44:01.236Z,1.50
2019-03-13T03:45:01.195Z,1.70
2019-03-13T03:46:01.188Z,1.50
2019-03-13T03:47:01.188Z,1.70
2019-03-13T03:48:01.167Z,1.50
2019-03-13T03:49:01.149Z,1.60
2019-03-13T03:50:01.141Z,1.70
2019-03-13T03:51:01.137Z,1.70
2019-03-13T03:52:01.152Z,1.60
2019-03-13T03:53:01.116Z,1.60
2019-03-13T03:54:01.091Z,1.90
2019-03-13T03:55:01.092Z,1.80
2019-03-13T03:56:01.071Z,1.90
2019-03-13T03:57:01.060Z,1.60
2019-03-13T03:58:01.063Z,1.90
2019-03-13T03:59:01.048Z,1.70
2019-03-13T04:00:01.029Z,1.70
2019-03-13T04:01:01.025Z,1.80
2019-03-13T04:02:01.005Z,1.90
2019-03-13T04:03:01.008Z,2.10
2019-03-13T04:04:00.987Z,1.90
2019-03-13T04:05:00.974Z,1.80
2019-03-13T04:06:00.966Z,2.30
2019-03-13T04:07:01.054Z,1.80
2019-03-13T04:08:00.963Z,1.80
2019-03-13T04:09:00.926Z,1.80
2019-03-13T04:10:00.915Z,1.80
2019-03-13T04:11:00.904Z,2.00
2019-03-13T04:12:00.910Z,1.70
2019-03-13T04:13:00.881Z,2.20
2019-03-13T04:14:00.887Z,1.80
2019-03-13T04:15:00.868Z,1.90
2019-03-13T04:16:00.848Z,2.40
2019-03-13T04:17:00.837Z,1.90
2019-03-13T04:18:00.826Z,2.20
2019-03-13T04:19:00.845Z,2.10
2019-03-13T04:20:00.806Z,2.10
2019-03-13T04:21:00.796Z,2.20
2019-03-13T04:22:00.810Z,2.10
2019-03-13T04:23:00.774Z,2.00
2019-03-13T04:24:00.762Z,2.30
2019-03-13T04:25:00.763Z,2.10
2019-03-13T04:26:00.742Z,2.50
2019-03-13T04:27:00.727Z,2.10
2019-03-13T04:28:00.723Z,2.40
2019-03-13T04:29:00.706Z,2.30
2019-03-13T04:30:00.720Z,2.20
2019-03-13T04:31:00.688Z,2.50
2019-03-13T04:32:00.670Z,2.60
2019-03-13T04:33:00.662Z,2.50
2019-03-13T04:34:00.647Z,2.60
2019-03-13T04:35:00.635Z,2.60
2019-03-13T04:36:00.653Z,2.60
2019-03-13T04:37:00.622Z,2.70
2019-03-13T04:38:00.614Z,2.80
2019-03-13T04:39:00.588Z,2.60
2019-03-13T04:40:00.585Z,2.50
2019-03-13T04:41:00.576Z,2.40
2019-03-13T04:42:00.580Z,2.60
2019-03-13T04:43:00.546Z,2.70
2019-03-13T04:44:00.536Z,3.00
2019-03-13T04:45:00.530Z,2.80
2019-03-13T04:46:00.512Z,3.10
2019-03-13T04:47:00.535Z,3.30
2019-03-13T04:48:00.492Z,3.00
2019-03-13T04:49:00.479Z,2.80
2019-03-13T04:50:00.488Z,3.00
2019-03-13T04:51:00.461Z,3.10
2019-03-13T04:52:00.450Z,3.10
2019-03-13T04:53:00.462Z,3.00
2019-03-13T04:54:00.423Z,2.80
2019-03-13T04:55:00.412Z,3.30
2019-03-13T04:56:00.410Z,3.20
2019-03-13T04:57:00.412Z,3.20
2019-03-13T04:58:00.382Z,3.60
2019-03-13T04:59:00.396Z,3.20
2019-03-13T05:00:00.407Z,3.30
2019-03-13T05:01:00.351Z,3.20
2019-03-13T05:02:00.334Z,3.20
2019-03-13T05:03:00.324Z,3.30
2019-03-13T05:04:00.310Z,3.50
2019-03-13T05:05:00.422Z,3.40
2019-03-13T05:06:00.294Z,3.30
2019-03-13T05:07:00.278Z,3.50
2019-03-13T05:08:00.267Z,3.40
2019-03-13T05:09:00.256Z,3.40
2019-03-13T05:10:00.408Z,3.60
2019-03-13T05:11:00.234Z,3.30
2019-03-13T05:12:00.223Z,3.00
2019-03-13T05:13:00.251Z,3.50
2019-03-13T05:14:00.230Z,3.50
2019-03-13T05:15:00.274Z,4.00
2019-03-13T05:16:00.184Z,4.10
2019-03-13T05:17:00.167Z,4.00
2019-03-13T05:18:00.157Z,4.20
2019-03-13T05:19:00.171Z,4.50
2019-03-13T05:20:00.268Z,4.10
2019-03-13T05:21:00.150Z,3.70
2019-03-13T05:22:00.113Z,3.60
2019-03-13T05:23:00.098Z,3.60
2019-03-13T05:24:00.088Z,3.60
2019-03-13T05:25:00.114Z,3.70
2019-03-13T05:26:00.065Z,3.70
2019-03-13T05:27:00.072Z,3.40
2019-03-13T05:28:00.045Z,3.60
2019-03-13T05:29:00.033Z,3.40
2019-03-13T05:30:00.022Z,3.70
2019-03-13T05:31:00.009Z,3.60
2019-03-13T05:32:00.028Z,3.80
2019-03-13T05:32:59.988Z,3.20
2019-03-13T05:33:59.981Z,3.80
2019-03-13T05:34:59.966Z,3.80
2019-03-13T05:35:59.955Z,3.60
2019-03-13T05:36:59.942Z,3.70
2019-03-13T05:37:59.959Z,3.60
2019-03-13T05:38:59.922Z,3.40
2019-03-13T05:39:59.918Z,3.70
2019-03-13T05:40:59.898Z,3.70
2019-03-13T05:41:59.888Z,3.90
2019-03-13T05:42:59.878Z,3.80
2019-03-13T05:43:59.894Z,3.60
2019-03-13T05:44:59.855Z,3.80
2019-03-13T05:45:59.844Z,3.90
2019-03-13T05:46:59.838Z,4.20
2019-03-13T05:47:59.820Z,3.90
2019-03-13T05:48:59.808Z,3.90
2019-03-13T05:49:59.824Z,3.80
2019-03-13T05:50:59.787Z,3.90
2019-03-13T05:51:59.777Z,4.20
2019-03-13T05:52:59.765Z,4.30
2019-03-13T05:53:59.753Z,4.00
2019-03-13T05:54:59.742Z,4.60
2019-03-13T05:55:59.759Z,4.30
2019-03-13T05:56:59.721Z,4.50
2019-03-13T05:57:59.753Z,4.40
2019-03-13T05:58:59.699Z,4.60
2019-03-13T05:59:59.686Z,3.80
2019-03-13T06:00:59.678Z,4.70
2019-03-13T06:01:59.690Z,4.30
2019-03-13T06:02:59.653Z,4.30
2019-03-13T06:03:59.644Z,4.10
2019-03-13T06:04:59.631Z,4.00
2019-03-13T06:05:59.620Z,4.30
2019-03-13T06:06:59.634Z,4.10
2019-03-13T06:07:59.599Z,4.10
2019-03-13T06:08:59.590Z,4.00
2019-03-13T06:09:59.576Z,4.10
2019-03-13T06:10:59.562Z,4.20
2019-03-13T06:11:59.551Z,4.30
2019-03-13T06:12:59.568Z,4.00
2019-03-13T06:13:59.529Z,4.30
2019-03-13T06:14:59.520Z,4.10
2019-03-13T06:15:59.507Z,4.20
2019-03-13T06:16:59.500Z,4.00
2019-03-13T06:17:59.484Z,3.90
2019-03-13T06:18:59.488Z,3.80
2019-03-13T06:19:59.462Z,3.60
2019-03-13T06:20:59.451Z,3.70
2019-03-13T06:21:59.440Z,3.80
2019-03-13T06:22:59.428Z,3.70
2019-03-13T06:23:59.444Z,3.90
2019-03-13T06:24:59.411Z,3.40
2019-03-13T06:25:59.396Z,3.30
2019-03-13T06:26:59.386Z,3.50
2019-03-13T06:27:59.378Z,3.30
2019-03-13T06:28:59.361Z,3.30
2019-03-13T06:29:59.377Z,3.20
2019-03-13T06:30:59.342Z,3.20
2019-03-13T06:31:59.327Z,3.20
2019-03-13T06:32:59.319Z,3.00
2019-03-13T06:33:59.306Z,3.10
2019-03-13T06:34:59.295Z,3.00
2019-03-13T06:35:59.311Z,3.60
2019-03-13T06:36:59.272Z,3.10
2019-03-13T06:37:59.268Z,2.90
2019-03-13T06:38:59.252Z,2.90
2019-03-13T06:39:59.239Z,2.80
2019-03-13T06:40:59.228Z,2.70
2019-03-13T06:41:59.234Z,3.20
2019-03-13T06:42:59.207Z,2.90
2019-03-13T06:43:59.196Z,3.10
2019-03-13T06:44:59.184Z,2.90
2019-03-13T06:45:59.175Z,2.90
2019-03-13T06:46:59.188Z,3.00
2019-03-13T06:47:59.150Z,2.90
2019-03-13T06:48:59.138Z,3.00
2019-03-13T06:49:59.126Z,2.60
2019-03-13T06:50:59.117Z,2.80
2019-03-13T06:51:59.106Z,3.00
2019-03-13T06:52:59.121Z,3.00
2019-03-13T06:53:59.088Z,2.90
2019-03-13T06:54:59.072Z,2.80
2019-03-13T06:55:59.060Z,2.40
2019-03-13T06:56:59.052Z,2.40
2019-03-13T06:57:59.038Z,2.10
2019-03-13T06:58:59.042Z,2.20
2019-03-13T06:59:59.018Z,2.40
2019-03-13T07:00:59.005Z,2.40
2019-03-13T07:01:58.995Z,2.60
2019-03-13T07:02:58.982Z,2.30
2019-03-13T07:03:58.997Z,2.10
2019-03-13T07:04:58.958Z,2.30
2019-03-13T07:05:58.947Z,2.00
2019-03-13T07:06:58.938Z,1.80
2019-03-13T07:07:58.926Z,1.70
2019-03-13T07:08:58.911Z,1.60
2019-03-13T07:09:58.926Z,1.90
2019-03-13T07:10:58.890Z,1.90
2019-03-13T07:11:58.879Z,2.20
2019-03-13T07:12:58.869Z,1.90
2019-03-13T07:13:58.858Z,1.90
2019-03-13T07:14:58.845Z,1.80
2019-03-13T07:15:58.850Z,1.50
2019-03-13T07:16:58.822Z,1.80
2019-03-13T07:17:58.811Z,1.50
2019-03-13T07:18:58.800Z,1.70
2019-03-13T07:19:58.789Z,1.70
2019-03-13T07:20:58.809Z,1.90
2019-03-13T07:21:58.767Z,3.10
2019-03-13T07:22:58.759Z,2.50
2019-03-13T07:23:58.744Z,1.80
2019-03-13T07:24:58.733Z,3.90
2019-03-13T07:25:58.722Z,2.50
2019-03-13T07:26:58.737Z,3.40
2019-03-13T07:27:58.700Z,1.80
2019-03-13T07:29:07.418Z,1.60
2019-03-13T07:29:59.676Z,1.70
2019-03-13T07:30:58.666Z,1.70
2019-03-13T07:31:58.653Z,1.60
2019-03-13T07:32:58.662Z,1.50
2019-03-13T07:33:58.632Z,1.40
2019-03-13T07:34:58.621Z,1.40
2019-03-13T07:35:58.608Z,1.80
2019-03-13T07:36:58.602Z,1.40
2019-03-13T07:37:58.602Z,2.60
2019-03-13T07:38:58.575Z,2.30
2019-03-13T07:39:58.567Z,1.60
2019-03-13T07:40:58.553Z,1.30
2019-03-13T07:41:58.543Z,1.50
2019-03-13T07:42:58.556Z,1.30
2019-03-13T07:43:58.519Z,2.30
2019-03-13T07:44:58.507Z,1.90
2019-03-13T07:45:58.496Z,1.50
2019-03-13T07:46:58.485Z,1.40
2019-03-13T07:47:58.475Z,1.50
2019-03-13T07:48:58.477Z,1.50
2019-03-13T07:49:58.450Z,1.70
2019-03-13T07:50:58.442Z,1.50
2019-03-13T07:51:58.428Z,1.60
2019-03-13T07:52:58.418Z,1.50
2019-03-13T07:53:58.433Z,2.00
2019-03-13T07:54:58.396Z,1.70
2019-03-13T07:55:58.382Z,1.60
2019-03-13T07:56:58.371Z,1.50
2019-03-13T07:57:58.361Z,2.00
2019-03-13T07:58:58.349Z,2.40
2019-03-13T07:59:58.355Z,2.40
2019-03-13T08:00:58.329Z,1.60
2019-03-13T08:01:58.316Z,1.40
2019-03-13T08:02:58.304Z,1.50
2019-03-13T08:03:58.293Z,1.60
2019-03-13T08:04:58.281Z,1.40
2019-03-13T08:05:58.287Z,1.20
2019-03-13T08:06:58.261Z,1.40
2019-03-13T08:07:58.249Z,1.20
2019-03-13T08:08:58.241Z,1.50
2019-03-13T08:09:58.227Z,1.50
2019-03-13T08:10:58.266Z,1.30
2019-03-13T08:11:58.203Z,1.20
2019-03-13T08:12:58.196Z,1.10
2019-03-13T08:13:58.182Z,1.10
2019-03-13T08:14:58.176Z,1.40
2019-03-13T08:15:58.156Z,1.20
2019-03-13T08:16:58.162Z,1.30
2019-03-13T08:17:58.144Z,1.30
2019-03-13T08:18:58.123Z,1.40
2019-03-13T08:19:58.113Z,1.20
2019-03-13T08:20:58.101Z,1.70
2019-03-13T08:21:58.116Z,1.10
2019-03-13T08:22:58.081Z,1.20
2019-03-13T08:23:58.066Z,1.30
2019-03-13T08:24:58.060Z,1.20
2019-03-13T08:25:58.045Z,1.20
2019-03-13T08:26:58.034Z,1.20
2019-03-13T08:27:58.052Z,1.20
2019-03-13T08:28:58.010Z,1.30
2019-03-13T08:29:57.998Z,1.30
2019-03-13T08:30:57.989Z,1.30
2019-03-13T08:31:57.977Z,1.20
2019-03-13T08:32:57.967Z,1.20
2019-03-13T08:33:57.970Z,1.40
2019-03-13T08:34:57.956Z,1.30
2019-03-13T08:35:57.936Z,1.10
2019-03-13T08:36:57.922Z,1.40
2019-03-13T08:37:57.908Z,1.10
2019-03-13T08:38:57.916Z,1.20
2019-03-13T08:39:57.888Z,1.00
2019-03-13T08:40:57.880Z,1.10
2019-03-13T08:41:57.865Z,1.30
2019-03-13T08:42:57.853Z,1.30
2019-03-13T08:43:57.870Z,1.30
2019-03-13T08:44:57.831Z,1.20
2019-03-13T08:45:57.820Z,1.40
2019-03-13T08:46:57.808Z,1.60
2019-03-13T08:47:57.797Z,1.30
2019-03-13T08:48:57.789Z,1.10
2019-03-13T08:49:57.793Z,1.10
2019-03-13T08:50:57.766Z,1.70
2019-03-13T08:51:57.767Z,1.50
2019-03-13T08:52:57.741Z,1.50
2019-03-13T08:53:57.730Z,1.80
2019-03-13T08:54:57.748Z,1.30
2019-03-13T08:55:57.707Z,1.40
2019-03-13T08:56:57.698Z,1.30
2019-03-13T08:57:57.686Z,1.80
2019-03-13T08:58:57.674Z,1.50
2019-03-13T08:59:57.663Z,1.10
2019-03-13T09:00:57.697Z,1.30
2019-03-13T09:01:57.642Z,1.10
2019-03-13T09:02:57.629Z,1.20
2019-03-13T09:03:57.617Z,1.20
2019-03-13T09:04:57.609Z,1.20
2019-03-13T09:05:57.597Z,1.10
2019-03-13T09:06:57.601Z,1.50
2019-03-13T09:07:57.668Z,1.30
2019-03-13T09:08:57.563Z,1.20
2019-03-13T09:09:57.549Z,1.40
2019-03-13T09:10:57.539Z,1.20
2019-03-13T09:11:57.559Z,1.50
2019-03-13T09:13:01.438Z,1.30
2019-03-13T09:13:57.506Z,1.60
2019-03-13T09:14:57.497Z,1.50
2019-03-13T09:15:57.483Z,1.70
2019-03-13T09:16:57.472Z,1.90
2019-03-13T09:17:57.549Z,2.00
2019-03-13T09:18:57.450Z,1.60
2019-03-13T09:19:57.437Z,1.50
2019-03-13T09:20:57.428Z,1.60
2019-03-13T09:21:57.414Z,1.90
2019-03-13T09:22:57.432Z,1.30
2019-03-13T09:23:57.391Z,1.30
2019-03-13T09:25:10.669Z,1.30
2019-03-13T09:25:58.370Z,1.50
2019-03-13T09:26:57.359Z,1.20
2019-03-13T09:27:57.350Z,1.30
2019-03-13T09:28:57.368Z,1.30
2019-03-13T09:29:57.325Z,1.30
2019-03-13T09:30:57.341Z,1.50
2019-03-13T09:31:57.304Z,1.10
2019-03-13T09:32:57.296Z,1.70
2019-03-13T09:33:57.281Z,1.40
2019-03-13T09:34:57.297Z,1.40
2019-03-13T09:35:57.261Z,1.30
2019-03-13T09:36:57.247Z,1.30
2019-03-13T09:37:57.237Z,1.30
2019-03-13T09:38:57.224Z,1.20
2019-03-13T09:39:57.213Z,1.20
2019-03-13T09:40:57.230Z,1.40
2019-03-13T09:41:57.194Z,1.20
2019-03-13T09:42:57.180Z,1.20
2019-03-13T09:43:59.915Z,1.40
2019-03-13T09:44:57.156Z,1.30
2019-03-13T09:45:57.146Z,1.20
2019-03-13T09:46:57.163Z,1.10
2019-03-13T09:47:57.125Z,1.40
2019-03-13T09:48:57.112Z,1.20
2019-03-13T09:49:57.101Z,1.40
2019-03-13T09:50:57.091Z,1.30
2019-03-13T09:51:57.076Z,1.20
2019-03-13T09:52:57.082Z,1.10
2019-03-13T09:53:57.055Z,1.40
2019-03-13T09:54:57.042Z,1.30
2019-03-13T09:55:57.033Z,1.30
2019-03-13T09:56:57.020Z,1.30
2019-03-13T09:57:57.037Z,1.20
2019-03-13T09:58:57.000Z,1.30
2019-03-13T09:59:56.991Z,1.20
2019-03-13T10:00:56.976Z,1.40
2019-03-13T10:01:56.964Z,1.20
2019-03-13T10:02:56.954Z,1.20
2019-03-13T10:03:56.956Z,1.40
2019-03-13T10:04:56.935Z,1.40
2019-03-13T10:05:56.924Z,1.20
2019-03-13T10:06:56.910Z,1.60
2019-03-13T10:07:56.899Z,1.40
2019-03-13T10:08:56.915Z,1.40
2019-03-13T10:09:56.874Z,1.90
2019-03-13T10:10:56.876Z,1.30
2019-03-13T10:11:56.854Z,1.40
2019-03-13T10:12:56.842Z,1.50
2019-03-13T10:13:56.831Z,1.70
2019-03-13T10:14:56.850Z,1.80
2019-03-13T10:15:56.808Z,2.00
2019-03-13T10:17:09.490Z,1.50
2019-03-13T10:17:57.787Z,1.30
2019-03-13T10:18:56.775Z,2.00
2019-03-13T10:19:56.763Z,1.70
2019-03-13T10:20:56.768Z,1.60
2019-03-13T10:21:56.739Z,1.60
2019-03-13T10:22:56.729Z,1.60
2019-03-13T10:23:56.717Z,1.30
2019-03-13T10:24:56.704Z,1.50
2019-03-13T10:25:56.721Z,1.50
2019-03-13T10:26:56.684Z,1.70
2019-03-13T10:27:56.672Z,1.50
2019-03-13T10:28:56.661Z,1.40
2019-03-13T10:29:56.649Z,1.50
2019-03-13T10:30:56.638Z,1.50
2019-03-13T10:31:56.645Z,2.20
2019-03-13T10:32:56.614Z,2.20
2019-03-13T10:33:56.604Z,1.80
2019-03-13T10:34:56.591Z,2.00
2019-03-13T10:35:56.580Z,2.40
2019-03-13T10:36:56.595Z,2.20
2019-03-13T10:37:56.560Z,1.80
2019-03-13T10:38:56.545Z,1.90
2019-03-13T10:39:56.534Z,2.20
2019-03-13T10:40:56.526Z,1.40
2019-03-13T10:41:58.727Z,1.60
2019-03-13T10:42:56.515Z,1.40
2019-03-13T10:43:56.489Z,1.60
2019-03-13T10:44:56.477Z,1.60
2019-03-13T10:45:56.469Z,1.90
2019-03-13T10:46:56.455Z,1.70
2019-03-13T10:47:56.460Z,1.40
2019-03-13T10:48:56.434Z,1.40
2019-03-13T10:49:56.425Z,1.20
2019-03-13T10:50:56.412Z,1.30
2019-03-13T10:51:56.398Z,1.70
2019-03-13T10:52:56.412Z,1.60
2019-03-13T10:53:56.387Z,1.40
2019-03-13T10:54:56.364Z,1.20
2019-03-13T10:55:56.354Z,1.50
2019-03-13T10:56:56.343Z,1.50
2019-03-13T10:57:56.335Z,1.30
2019-03-13T10:58:56.348Z,1.60
2019-03-13T10:59:56.308Z,1.40
2019-03-13T11:00:56.298Z,1.40
2019-03-13T11:01:56.287Z,1.80
2019-03-13T11:02:56.276Z,1.70
2019-03-13T11:03:56.266Z,1.90
2019-03-13T11:04:56.274Z,2.50
2019-03-13T11:05:56.242Z,1.90
2019-03-13T11:06:56.231Z,1.30
2019-03-13T11:07:56.221Z,1.40
2019-03-13T11:08:56.211Z,1.40
2019-03-13T11:09:56.227Z,1.40
2019-03-13T11:10:56.198Z,1.50
2019-03-13T11:11:56.178Z,1.10
2019-03-13T11:12:56.169Z,1.50
2019-03-13T11:13:56.155Z,1.80
2019-03-13T11:14:56.149Z,1.50
2019-03-13T11:15:56.168Z,1.50
2019-03-13T11:16:56.122Z,1.20
2019-03-13T11:17:56.111Z,1.10
2019-03-13T11:18:56.107Z,1.80
2019-03-13T11:19:56.088Z,1.30
2019-03-13T11:20:56.106Z,1.50
2019-03-13T11:21:56.067Z,1.40
2019-03-13T11:22:56.055Z,1.50
2019-03-13T11:23:56.043Z,1.40
2019-03-13T11:24:56.036Z,1.40
2019-03-13T11:25:56.026Z,1.20
2019-03-13T11:26:56.026Z,1.50
2019-03-13T11:27:56.000Z,1.20
2019-03-13T11:28:55.989Z,1.20
2019-03-13T11:29:55.978Z,1.70
2019-03-13T11:30:55.967Z,1.50
2019-03-13T11:31:55.983Z,1.30
2019-03-13T11:32:55.946Z,1.20
2019-03-13T11:33:55.933Z,1.10
2019-03-13T11:34:55.922Z,1.30
2019-03-13T11:35:55.910Z,1.20
2019-03-13T11:36:55.900Z,1.40
2019-03-13T11:37:55.905Z,1.60
2019-03-13T11:38:55.879Z,1.30
2019-03-13T11:39:55.868Z,1.40
2019-03-13T11:40:55.854Z,1.30
2019-03-13T11:41:55.844Z,1.40
2019-03-13T11:42:55.858Z,1.40
2019-03-13T11:43:55.822Z,1.60
2019-03-13T11:44:55.810Z,1.40
2019-03-13T11:45:55.800Z,1.40
2019-03-13T11:46:55.789Z,1.40
2019-03-13T11:47:55.784Z,1.40
2019-03-13T11:48:55.780Z,1.30
2019-03-13T11:49:55.753Z,1.60
2019-03-13T11:50:55.742Z,1.30
2019-03-13T11:51:55.731Z,1.10
2019-03-13T11:52:55.723Z,1.20
2019-03-13T11:53:55.737Z,1.30
2019-03-13T11:54:55.698Z,1.40
2019-03-13T11:55:55.688Z,1.40
2019-03-13T11:56:55.678Z,0.90
2019-03-13T11:57:55.662Z,1.00
2019-03-13T11:58:55.656Z,1.10
2019-03-13T11:59:55.657Z,1.10
2019-03-13T12:00:55.631Z,1.20
2019-03-13T12:01:55.625Z,1.70
2019-03-13T12:02:55.607Z,1.30
2019-03-13T12:03:55.599Z,1.30
2019-03-13T12:04:55.617Z,1.30
2019-03-13T12:05:55.576Z,1.20
2019-03-13T12:06:55.561Z,1.20
2019-03-13T12:07:55.549Z,1.30
2019-03-13T12:08:55.541Z,1.40
2019-03-13T12:09:55.527Z,1.20
2019-03-13T12:10:55.536Z,1.80
2019-03-13T12:11:55.505Z,1.70
2019-03-13T12:12:55.494Z,1.40
2019-03-13T12:13:55.482Z,1.40
2019-03-13T12:14:55.471Z,2.00
2019-03-13T12:15:55.491Z,2.10
2019-03-13T12:16:55.458Z,2.20
2019-03-13T12:17:55.436Z,1.40
2019-03-13T12:18:55.426Z,1.20
2019-03-13T12:19:55.416Z,1.20
2019-03-13T12:20:55.404Z,1.10
2019-03-13T12:21:55.412Z,1.20
2019-03-13T12:22:55.382Z,1.20
2019-03-13T12:23:55.371Z,1.10
2019-03-13T12:24:55.361Z,1.00
2019-03-13T12:25:55.348Z,1.40
2019-03-13T12:26:55.363Z,1.20
2019-03-13T12:27:55.325Z,1.10
2019-03-13T12:28:55.314Z,1.00
2019-03-13T12:29:55.302Z,1.20
2019-03-13T12:30:55.291Z,1.10
2019-03-13T12:31:55.288Z,1.20
2019-03-13T12:32:55.285Z,1.10
2019-03-13T12:33:55.256Z,1.00
2019-03-13T12:34:55.246Z,1.00
2019-03-13T12:35:55.313Z,0.90
2019-03-13T12:36:55.225Z,1.30
2019-03-13T12:37:55.241Z,1.00
2019-03-13T12:38:55.200Z,1.30
2019-03-13T12:39:55.188Z,1.30
2019-03-13T12:40:55.178Z,1.20
2019-03-13T12:41:55.168Z,1.20
2019-03-13T12:42:55.156Z,1.10
2019-03-13T12:43:55.160Z,1.30
2019-03-13T12:44:55.134Z,1.20
2019-03-13T12:45:55.120Z,1.70
2019-03-13T12:46:55.111Z,1.40
2019-03-13T12:47:55.107Z,1.20
2019-03-13T12:48:55.116Z,1.00
2019-03-13T12:49:55.077Z,1.10
2019-03-13T12:50:55.090Z,1.20
2019-03-13T12:51:55.056Z,1.50
2019-03-13T12:52:55.041Z,1.20
2019-03-13T12:53:55.035Z,1.20
2019-03-13T12:54:55.056Z,1.30
2019-03-13T12:55:55.006Z,1.30
2019-03-13T12:56:54.997Z,1.20
2019-03-13T12:57:54.984Z,1.30
2019-03-13T12:58:54.972Z,1.00
2019-03-13T12:59:54.963Z,1.30
2019-03-13T13:00:54.973Z,1.50
2019-03-13T13:01:54.947Z,1.20
2019-03-13T13:02:55.102Z,1.20
2019-03-13T13:03:54.916Z,1.20
2019-03-13T13:04:54.906Z,1.20
2019-03-13T13:05:54.926Z,1.90
2019-03-13T13:06:54.885Z,1.70
2019-03-13T13:07:54.870Z,1.30
2019-03-13T13:08:54.860Z,1.30
2019-03-13T13:09:54.847Z,2.00
2019-03-13T13:10:54.838Z,1.70
2019-03-13T13:11:54.852Z,1.40
2019-03-13T13:12:54.815Z,1.50
2019-03-13T13:13:54.803Z,1.60
2019-03-13T13:14:54.791Z,1.60
2019-03-13T13:15:54.779Z,1.40
2019-03-13T13:16:54.770Z,1.20
2019-03-13T13:17:54.773Z,1.40